createdAt,value
2022-10-06T00:01:13.760Z,7.32
2022-10-06T00:03:47.046Z,7.20
2022-10-06T00:06:16.712Z,6.25
2022-10-06T00:08:45.241Z,7.35
2022-10-06T00:11:14.001Z,6.70
2022-10-06T00:13:41.555Z,7.00
2022-10-06T00:16:11.330Z,7.75
2022-10-06T00:18:38.595Z,7.38
2022-10-06T00:21:06.138Z,7.82
2022-10-06T00:23:33.488Z,7.97
2022-10-06T00:26:00.369Z,7.50
2022-10-06T00:28:28.081Z,7.72
2022-10-06T00:30:56.424Z,7.57
2022-10-06T00:33:24.205Z,7.90
2022-10-06T00:36:00.889Z,6.25
2022-10-06T00:38:28.799Z,7.22
2022-10-06T00:40:56.049Z,7.50
2022-10-06T00:43:47.173Z,6.82
2022-10-06T00:46:19.102Z,6.78
2022-10-06T00:48:49.251Z,7.18
2022-10-06T00:51:16.825Z,6.85
2022-10-06T00:53:43.844Z,7.40
2022-10-06T00:56:12.033Z,6.47
2022-10-06T00:58:39.282Z,6.85
2022-10-06T01:01:07.900Z,6.80
2022-10-06T01:03:39.692Z,7.00
2022-10-06T01:06:07.705Z,6.90
2022-10-06T01:08:35.467Z,7.63
2022-10-06T01:11:03.027Z,6.80
2022-10-06T01:13:31.427Z,6.65
2022-10-06T01:16:05.759Z,6.53
2022-10-06T01:18:33.957Z,6.85
2022-10-06T01:21:18.193Z,6.00
2022-10-06T01:23:45.641Z,6.60
2022-10-06T01:26:14.792Z,6.80
2022-10-06T01:28:41.843Z,6.03
2022-10-06T01:31:09.622Z,6.43
2022-10-06T01:33:36.584Z,6.45
2022-10-06T01:36:04.855Z,6.72
2022-10-06T01:38:32.752Z,6.65
2022-10-06T01:41:03.226Z,6.32
2022-10-06T01:43:30.295Z,6.22
2022-10-06T01:45:58.841Z,6.00
2022-10-06T01:48:27.204Z,6.20
2022-10-06T01:50:56.835Z,6.05
2022-10-06T01:53:23.983Z,6.05
2022-10-06T01:55:50.898Z,5.70
2022-10-06T01:58:23.604Z,6.68
2022-10-06T02:00:51.123Z,6.82
2022-10-06T02:03:18.288Z,6.20
2022-10-06T02:05:45.609Z,6.38
2022-10-06T02:08:13.394Z,6.10
2022-10-06T02:10:41.410Z,6.45
2022-10-06T02:13:14.926Z,5.57
2022-10-06T02:15:41.998Z,6.65
2022-10-06T02:18:09.137Z,6.38
2022-10-06T02:20:36.303Z,6.30
2022-10-06T02:23:03.243Z,6.15
2022-10-06T02:25:30.112Z,5.75
2022-10-06T02:27:57.312Z,5.72
2022-10-06T02:30:24.322Z,5.85
2022-10-06T02:32:51.784Z,5.55
2022-10-06T02:35:20.097Z,5.90
2022-10-06T02:37:48.872Z,5.35
2022-10-06T02:40:18.478Z,5.82
2022-10-06T02:42:46.050Z,5.72
2022-10-06T02:45:16.717Z,5.97
2022-10-06T02:47:44.324Z,5.88
2022-10-06T02:50:13.043Z,5.65
2022-10-06T02:52:42.778Z,5.75
2022-10-06T02:55:10.939Z,6.07
2022-10-06T02:57:38.414Z,5.38
2022-10-06T03:00:07.386Z,5.65
2022-10-06T03:02:34.969Z,5.38
2022-10-06T03:05:02.540Z,5.28
2022-10-06T03:07:29.787Z,5.25
2022-10-06T03:09:57.632Z,6.10
2022-10-06T03:12:25.628Z,5.05
2022-10-06T03:14:52.636Z,5.90
2022-10-06T03:17:20.343Z,5.40
2022-10-06T03:19:52.390Z,5.65
2022-10-06T03:22:19.413Z,5.43
2022-10-06T03:24:51.350Z,5.57
2022-10-06T03:27:18.408Z,5.32
2022-10-06T03:29:46.088Z,5.50
2022-10-06T03:32:14.377Z,5.53
2022-10-06T03:34:43.346Z,5.65
2022-10-06T03:37:13.220Z,5.07
2022-10-06T03:39:40.199Z,5.40
2022-10-06T03:42:07.471Z,5.13
2022-10-06T03:44:35.165Z,5.60
2022-10-06T03:47:02.776Z,5.45
2022-10-06T03:49:31.228Z,5.20
2022-10-06T03:51:58.100Z,5.95
2022-10-06T03:54:28.618Z,5.25
2022-10-06T03:56:56.629Z,5.18
2022-10-06T03:59:24.295Z,4.68
2022-10-06T04:01:53.198Z,5.60
2022-10-06T04:04:28.643Z,5.30
2022-10-06T04:07:00.751Z,5.65
2022-10-06T04:09:27.889Z,5.68
2022-10-06T04:11:54.716Z,5.40
2022-10-06T04:14:21.631Z,5.57
2022-10-06T04:16:50.119Z,5.07
2022-10-06T04:19:22.197Z,5.93
2022-10-06T04:21:52.428Z,5.25
2022-10-06T04:24:22.045Z,5.45
2022-10-06T04:26:50.135Z,5.45
2022-10-06T04:29:18.942Z,5.00
2022-10-06T04:31:50.602Z,5.38
2022-10-06T04:34:43.624Z,5.07
2022-10-06T04:37:10.819Z,5.43
2022-10-06T04:39:38.983Z,5.38
2022-10-06T04:42:07.457Z,5.45
2022-10-06T04:44:34.466Z,5.30
2022-10-06T04:47:04.384Z,5.35
2022-10-06T04:49:32.026Z,5.35
2022-10-06T04:51:59.204Z,5.32
2022-10-06T04:54:33.383Z,4.70
2022-10-06T04:57:01.398Z,4.55
2022-10-06T04:59:48.900Z,4.70
2022-10-06T05:02:17.568Z,5.28
2022-10-06T05:04:45.781Z,5.10
2022-10-06T05:07:15.136Z,4.70
2022-10-06T05:09:42.673Z,5.28
2022-10-06T05:12:11.581Z,5.05
2022-10-06T05:14:39.503Z,5.10
2022-10-06T05:17:06.710Z,4.72
2022-10-06T05:19:35.176Z,5.15
2022-10-06T05:22:02.867Z,4.75
2022-10-06T05:24:31.765Z,5.05
2022-10-06T05:27:02.080Z,5.75
2022-10-06T05:29:29.757Z,5.15
2022-10-06T05:31:57.223Z,6.18
2022-10-06T05:34:24.783Z,5.53
2022-10-06T05:36:52.154Z,5.35
2022-10-06T05:39:19.109Z,5.78
2022-10-06T05:41:50.093Z,5.68
2022-10-06T05:44:17.554Z,5.57
2022-10-06T05:46:45.710Z,6.45
2022-10-06T05:49:13.442Z,5.82
2022-10-06T05:51:45.900Z,6.15
2022-10-06T05:54:17.978Z,5.55
2022-10-06T05:56:44.887Z,5.35
2022-10-06T05:59:12.078Z,5.57
2022-10-06T06:01:41.288Z,5.65
2022-10-06T06:04:16.426Z,5.43
2022-10-06T06:06:48.720Z,5.83
2022-10-06T06:09:21.542Z,4.50
2022-10-06T06:11:54.077Z,4.63
2022-10-06T06:15:08.972Z,4.60
2022-10-06T06:17:41.228Z,5.45
2022-10-06T06:20:09.041Z,6.10
2022-10-06T06:22:35.991Z,5.00
2022-10-06T06:25:04.871Z,4.70
2022-10-06T06:27:32.266Z,5.00
2022-10-06T06:29:59.193Z,5.00
2022-10-06T06:32:28.124Z,6.43
2022-10-06T06:34:56.228Z,5.10
2022-10-06T06:37:24.196Z,5.13
2022-10-06T06:39:51.510Z,5.28
2022-10-06T06:42:18.846Z,5.13
2022-10-06T06:47:40.256Z,4.47
2022-10-06T06:50:10.520Z,4.63
2022-10-06T06:52:39.284Z,4.93
2022-10-06T06:55:09.472Z,5.30
2022-10-06T06:57:36.849Z,4.38
2022-10-06T07:00:08.059Z,4.65
2022-10-06T07:02:36.915Z,5.30
2022-10-06T07:05:04.745Z,5.03
2022-10-06T07:07:32.295Z,4.25
2022-10-06T07:09:59.974Z,4.93
2022-10-06T07:12:26.963Z,4.45
2022-10-06T07:15:16.063Z,5.10
2022-10-06T07:18:05.164Z,4.30
2022-10-06T07:20:50.768Z,3.92
2022-10-06T07:23:39.088Z,4.20
2022-10-06T07:26:13.312Z,4.65
2022-10-06T07:28:42.418Z,4.70
2022-10-06T07:31:10.461Z,5.15
2022-10-06T07:33:39.221Z,4.45
2022-10-06T07:36:06.524Z,5.03
2022-10-06T07:38:34.160Z,6.28
2022-10-06T07:43:53.942Z,4.70
2022-10-06T07:46:22.256Z,4.75
2022-10-06T07:49:03.699Z,4.38
2022-10-06T07:51:31.801Z,4.65
2022-10-06T07:53:59.813Z,4.80
2022-10-06T07:56:32.608Z,4.63
2022-10-06T07:58:59.871Z,4.43
2022-10-06T08:01:29.640Z,4.20
2022-10-06T08:03:57.324Z,4.40
2022-10-06T08:06:24.559Z,4.20
2022-10-06T08:08:56.606Z,3.95
2022-10-06T08:11:24.476Z,4.72
2022-10-06T08:13:52.135Z,4.00
2022-10-06T08:16:24.610Z,4.15
2022-10-06T08:18:53.881Z,4.57
2022-10-06T08:21:27.104Z,4.00
2022-10-06T08:23:55.983Z,4.75
2022-10-06T08:26:25.063Z,4.57
2022-10-06T08:28:55.315Z,4.15
2022-10-06T08:31:23.131Z,4.25
2022-10-06T08:33:54.615Z,4.45
2022-10-06T08:36:21.747Z,4.30
2022-10-06T08:38:51.549Z,4.78
2022-10-06T08:41:27.589Z,4.72
2022-10-06T08:44:02.756Z,4.63
2022-10-06T08:46:36.463Z,4.93
2022-10-06T08:49:04.012Z,4.53
2022-10-06T08:52:00.672Z,4.50
2022-10-06T08:54:58.955Z,5.47
2022-10-06T08:57:28.864Z,4.20
2022-10-06T08:59:59.174Z,4.18
2022-10-06T09:02:34.906Z,4.25
2022-10-06T09:05:05.678Z,4.22
2022-10-06T09:07:52.427Z,4.32
2022-10-06T09:10:22.532Z,4.10
2022-10-06T09:13:00.781Z,3.75
2022-10-06T09:15:49.977Z,4.25
2022-10-06T09:18:56.032Z,3.88
2022-10-06T09:23:54.003Z,3.70
2022-10-06T09:26:31.657Z,4.13
2022-10-06T09:28:59.277Z,4.18
2022-10-06T09:31:44.587Z,3.63
2022-10-06T09:34:45.742Z,4.10
2022-10-06T09:37:13.791Z,4.00
2022-10-06T09:39:51.879Z,3.80
2022-10-06T09:42:35.497Z,4.70
2022-10-06T09:45:23.591Z,4.70
2022-10-06T09:47:50.894Z,4.25
2022-10-06T09:50:22.160Z,3.55
2022-10-06T09:53:03.440Z,4.20
2022-10-06T09:55:33.915Z,4.38
2022-10-06T09:58:01.898Z,4.70
2022-10-06T10:00:34.896Z,4.03
2022-10-06T10:03:09.008Z,3.88
2022-10-06T10:05:46.713Z,4.55
2022-10-06T10:08:13.726Z,4.25
2022-10-06T10:10:41.748Z,3.80
2022-10-06T10:13:26.010Z,3.60
2022-10-06T10:15:59.308Z,4.95
2022-10-06T10:18:30.251Z,3.45
2022-10-06T10:21:08.629Z,3.95
2022-10-06T10:23:55.289Z,4.10
2022-10-06T10:26:40.814Z,4.07
2022-10-06T10:29:32.953Z,4.03
2022-10-06T10:32:12.224Z,4.70
2022-10-06T10:34:52.220Z,4.47
2022-10-06T10:37:32.915Z,4.30
2022-10-06T10:40:08.587Z,4.60
2022-10-06T10:43:01.661Z,4.38
2022-10-06T10:45:34.300Z,4.60
2022-10-06T10:48:07.036Z,4.10
2022-10-06T10:50:38.794Z,3.90
2022-10-06T10:53:15.194Z,3.70
2022-10-06T10:55:46.804Z,4.40
2022-10-06T10:58:21.339Z,4.95
2022-10-06T11:00:58.577Z,4.10
2022-10-06T11:03:25.827Z,3.80
2022-10-06T11:05:52.762Z,4.03
2022-10-06T11:08:34.846Z,4.07
2022-10-06T11:11:08.454Z,3.88
2022-10-06T11:13:44.878Z,4.22
2022-10-06T11:16:42.931Z,4.68
2022-10-06T11:19:30.075Z,5.68
2022-10-06T11:22:14.879Z,4.20
2022-10-06T11:25:04.261Z,4.00
2022-10-06T11:28:20.032Z,4.32
2022-10-06T11:31:22.759Z,4.80
2022-10-06T11:33:55.591Z,3.95
2022-10-06T11:36:58.439Z,3.95
2022-10-06T11:39:37.904Z,4.60
2022-10-06T11:42:13.571Z,4.82
2022-10-06T11:44:45.338Z,4.57
2022-10-06T11:49:52.288Z,3.83
2022-10-06T11:52:19.224Z,3.88
2022-10-06T11:54:57.902Z,2.95
2022-10-06T11:57:30.860Z,2.85
2022-10-06T12:00:04.419Z,3.58
2022-10-06T12:02:39.361Z,4.10
2022-10-06T12:05:49.373Z,3.15
2022-10-06T12:08:00.200Z,3.10
2022-10-06T12:10:30.313Z,2.67
2022-10-06T12:13:51.436Z,2.55
2022-10-06T12:19:31.628Z,3.00
2022-10-06T12:22:17.687Z,2.38
2022-10-06T12:24:54.607Z,2.78
2022-10-06T12:27:39.757Z,2.97
2022-10-06T12:30:23.538Z,2.53
2022-10-06T12:32:57.671Z,2.60
2022-10-06T12:35:40.299Z,2.83
2022-10-06T12:38:35.644Z,2.75
2022-10-06T12:41:02.636Z,2.72
2022-10-06T12:43:43.953Z,3.10
2022-10-06T12:46:22.931Z,3.25
2022-10-06T12:49:34.552Z,3.08
2022-10-06T12:52:17.270Z,2.88
2022-10-06T12:54:55.984Z,2.67
2022-10-06T12:57:28.496Z,2.92
2022-10-06T12:59:55.727Z,3.30
2022-10-06T13:02:27.415Z,2.97
2022-10-06T13:04:59.151Z,3.55
2022-10-06T13:07:29.461Z,3.30
2022-10-06T13:10:15.094Z,2.65
2022-10-06T13:12:46.741Z,3.35
2022-10-06T13:15:22.326Z,3.78
2022-10-06T13:17:54.497Z,3.65
2022-10-06T13:20:36.381Z,3.42
2022-10-06T13:23:18.743Z,3.85
2022-10-06T13:25:50.311Z,3.10
2022-10-06T13:28:36.091Z,2.95
2022-10-06T13:31:11.928Z,2.78
2022-10-06T13:33:42.315Z,2.78
2022-10-06T13:36:11.092Z,2.55
2022-10-06T13:38:39.466Z,2.40
2022-10-06T13:41:07.074Z,3.70
2022-10-06T13:43:40.417Z,2.75
2022-10-06T13:46:11.206Z,3.20
2022-10-06T13:48:46.085Z,2.20
2022-10-06T13:51:29.746Z,1.90
2022-10-06T13:53:59.053Z,1.40
2022-10-06T13:56:36.243Z,1.77
2022-10-06T13:59:32.554Z,2.10
2022-10-06T14:02:22.063Z,1.98
2022-10-06T14:05:30.477Z,1.77
2022-10-06T14:08:25.444Z,1.70
2022-10-06T14:11:02.135Z,1.60
2022-10-06T14:13:38.334Z,1.35
2022-10-06T14:16:08.305Z,1.75
2022-10-06T14:18:41.567Z,1.67
2022-10-06T14:21:28.876Z,1.83
2022-10-06T14:23:56.835Z,1.40
2022-10-06T14:26:32.467Z,1.35
2022-10-06T14:28:59.650Z,1.30
2022-10-06T14:31:28.490Z,1.50
2022-10-06T14:33:57.112Z,1.42
2022-10-06T14:36:29.879Z,1.73
2022-10-06T14:38:58.634Z,1.50
2022-10-06T14:41:28.746Z,1.30
2022-10-06T14:44:03.821Z,1.48
2022-10-06T14:46:31.028Z,1.40
2022-10-06T14:48:58.856Z,1.80
2022-10-06T14:51:27.340Z,1.63
2022-10-06T14:53:56.712Z,1.35
2022-10-06T14:56:26.586Z,1.40
2022-10-06T14:58:53.688Z,1.63
2022-10-06T15:01:23.567Z,1.33
2022-10-06T15:03:56.125Z,1.67
2022-10-06T15:06:42.456Z,1.40
2022-10-06T15:09:10.430Z,1.33
2022-10-06T15:11:38.245Z,1.13
2022-10-06T15:14:06.805Z,1.30
2022-10-06T15:16:34.709Z,1.50
2022-10-06T15:19:05.027Z,1.10
2022-10-06T15:21:35.425Z,1.30
2022-10-06T15:24:04.337Z,1.33
2022-10-06T15:26:50.196Z,1.27
2022-10-06T15:29:18.218Z,1.33
2022-10-06T15:31:54.942Z,1.15
2022-10-06T15:34:25.747Z,1.20
2022-10-06T15:36:54.169Z,1.17
2022-10-06T15:39:23.867Z,1.40
2022-10-06T15:41:51.762Z,1.65
2022-10-06T15:44:19.706Z,1.13
2022-10-06T15:46:56.741Z,1.10
2022-10-06T15:49:32.987Z,1.40
2022-10-06T15:52:03.236Z,1.58
2022-10-06T15:54:39.576Z,1.08
2022-10-06T15:57:17.891Z,1.45
2022-10-06T15:59:46.922Z,1.33
2022-10-06T16:02:16.766Z,1.45
2022-10-06T16:04:45.365Z,1.35
2022-10-06T16:07:15.321Z,1.17
2022-10-06T16:09:46.645Z,1.50
2022-10-06T16:12:20.112Z,1.30
2022-10-06T16:14:47.624Z,1.50
2022-10-06T16:17:15.584Z,1.40
2022-10-06T16:19:43.194Z,1.85
2022-10-06T16:22:12.926Z,3.05
2022-10-06T16:24:40.327Z,1.90
2022-10-06T16:27:14.270Z,1.73
2022-10-06T16:29:41.534Z,1.75
2022-10-06T16:32:09.202Z,2.10
2022-10-06T16:34:36.361Z,2.28
2022-10-06T16:37:03.564Z,1.88
2022-10-06T16:39:30.528Z,2.13
2022-10-06T16:41:57.456Z,2.35
2022-10-06T16:44:24.686Z,2.15
2022-10-06T16:46:51.712Z,2.03
2022-10-06T16:49:19.697Z,2.30
2022-10-06T16:51:46.947Z,2.35
2022-10-06T16:54:15.497Z,2.40
2022-10-06T16:56:48.099Z,2.60
2022-10-06T16:59:21.186Z,2.60
2022-10-06T17:01:49.168Z,2.55
2022-10-06T17:04:20.366Z,2.42
2022-10-06T17:06:50.274Z,2.42
2022-10-06T17:09:20.154Z,2.22
2022-10-06T17:11:52.538Z,2.45
2022-10-06T17:14:21.877Z,2.50
2022-10-06T17:16:51.822Z,2.42
2022-10-06T17:19:21.504Z,2.33
2022-10-06T17:21:52.801Z,2.10
2022-10-06T17:24:25.861Z,2.17
2022-10-06T17:26:53.088Z,2.10
2022-10-06T17:29:21.754Z,2.05
2022-10-06T17:31:51.035Z,1.92
2022-10-06T17:34:21.905Z,1.90
2022-10-06T17:36:52.208Z,2.03
2022-10-06T17:39:21.682Z,1.90
2022-10-06T17:41:50.714Z,2.00
2022-10-06T17:44:23.264Z,2.08
2022-10-06T17:46:53.920Z,2.53
2022-10-06T17:49:22.606Z,2.42
2022-10-06T17:51:51.874Z,2.45
2022-10-06T17:54:21.514Z,2.30
2022-10-06T17:56:51.135Z,2.30
2022-10-06T17:59:24.606Z,2.47
2022-10-06T18:01:56.630Z,2.47
2022-10-06T18:04:24.308Z,2.15
2022-10-06T18:06:53.983Z,2.03
2022-10-06T18:09:21.990Z,2.33
2022-10-06T18:11:54.801Z,2.80
2022-10-06T18:14:27.197Z,2.10
2022-10-06T18:17:00.534Z,2.10
2022-10-06T18:19:34.177Z,2.72
2022-10-06T18:22:03.793Z,2.33
2022-10-06T18:24:31.798Z,2.30
2022-10-06T18:27:00.483Z,2.78
2022-10-06T18:29:33.771Z,3.15
2022-10-06T18:32:38.545Z,2.63
2022-10-06T18:37:35.708Z,2.60
2022-10-06T18:40:06.266Z,2.00
2022-10-06T18:42:33.413Z,2.93
2022-10-06T18:45:19.128Z,2.72
2022-10-06T18:48:04.632Z,2.30
2022-10-06T18:50:32.444Z,2.30
2022-10-06T18:52:59.507Z,1.75
2022-10-06T18:55:27.888Z,2.30
2022-10-06T18:57:55.153Z,1.90
2022-10-06T19:00:22.771Z,2.50
2022-10-06T19:02:52.130Z,2.08
2022-10-06T19:05:19.164Z,2.55
2022-10-06T19:07:46.428Z,1.92
2022-10-06T19:10:14.079Z,2.00
2022-10-06T19:12:40.990Z,2.63
2022-10-06T19:15:08.487Z,2.15
2022-10-06T19:17:35.853Z,2.38
2022-10-06T19:20:02.950Z,3.63
2022-10-06T19:22:29.903Z,2.30
2022-10-06T19:24:57.295Z,2.10
2022-10-06T19:27:25.598Z,2.63
2022-10-06T19:29:56.914Z,2.58
2022-10-06T19:32:32.125Z,2.20
2022-10-06T19:35:00.031Z,2.72
2022-10-06T19:37:29.665Z,2.30
2022-10-06T19:39:56.867Z,2.33
2022-10-06T19:42:42.734Z,2.60
2022-10-06T19:45:12.173Z,2.75
2022-10-06T19:47:40.641Z,2.47
2022-10-06T19:50:12.144Z,3.20
2022-10-06T19:52:41.356Z,3.03
2022-10-06T19:55:08.968Z,3.88
2022-10-06T19:57:35.841Z,3.50
2022-10-06T20:00:05.455Z,4.20
2022-10-06T20:02:42.892Z,3.58
2022-10-06T20:05:15.983Z,4.70
2022-10-06T20:07:45.804Z,4.45
2022-10-06T20:10:13.598Z,5.40
2022-10-06T20:12:44.004Z,5.97
2022-10-06T20:15:12.896Z,7.78
2022-10-06T20:17:42.446Z,8.27
2022-10-06T20:20:10.005Z,8.50
2022-10-06T20:22:37.253Z,9.38
2022-10-06T20:25:05.175Z,9.15
2022-10-06T20:27:32.050Z,9.38
2022-10-06T20:29:59.191Z,10.63
2022-10-06T20:32:26.268Z,11.20
2022-10-06T20:34:53.237Z,10.43
2022-10-06T20:37:20.409Z,10.88
2022-10-06T20:40:05.921Z,10.85
2022-10-06T20:42:33.680Z,10.65
2022-10-06T20:45:00.526Z,11.23
2022-10-06T20:47:27.912Z,11.55
2022-10-06T20:49:55.368Z,11.30
2022-10-06T20:52:23.962Z,10.57
2022-10-06T20:54:51.487Z,10.63
2022-10-06T20:57:18.660Z,11.80
2022-10-06T20:59:46.240Z,11.85
2022-10-06T21:02:13.733Z,11.65
2022-10-06T21:04:59.083Z,12.02
2022-10-06T21:07:26.195Z,12.07
2022-10-06T21:09:53.100Z,11.48
2022-10-06T21:12:20.332Z,12.70
2022-10-06T21:14:47.959Z,12.02
2022-10-06T21:17:14.897Z,11.93
2022-10-06T21:19:41.804Z,12.73
2022-10-06T21:22:08.886Z,11.35
2022-10-06T21:24:35.965Z,12.02
2022-10-06T21:27:03.344Z,11.95
2022-10-06T21:29:30.547Z,12.18
2022-10-06T21:32:16.028Z,11.25
2022-10-06T21:34:43.238Z,13.15
2022-10-06T21:37:10.593Z,12.80
2022-10-06T21:39:37.673Z,12.45
2022-10-06T21:42:04.899Z,12.43
2022-10-06T21:44:31.874Z,13.27
2022-10-06T21:47:02.548Z,13.18
2022-10-06T21:49:29.956Z,12.82
2022-10-06T21:51:58.602Z,12.85
2022-10-06T21:54:25.614Z,11.73
2022-10-06T21:56:53.094Z,13.43
2022-10-06T21:59:20.136Z,13.35
2022-10-06T22:01:49.822Z,13.18
2022-10-06T22:04:17.566Z,13.27
2022-10-06T22:06:47.719Z,12.55
2022-10-06T22:09:17.553Z,13.82
2022-10-06T22:11:45.479Z,12.57
2022-10-06T22:14:14.402Z,13.48
2022-10-06T22:16:42.490Z,12.77
2022-10-06T22:19:12.000Z,12.32
2022-10-06T22:21:41.794Z,12.98
2022-10-06T22:24:14.154Z,13.30
2022-10-06T22:26:42.782Z,14.02
2022-10-06T22:29:12.434Z,13.88
2022-10-06T22:31:41.276Z,13.95
2022-10-06T22:34:10.470Z,14.07
2022-10-06T22:36:37.768Z,14.82
2022-10-06T22:39:05.082Z,15.20
2022-10-06T22:41:32.548Z,14.88
2022-10-06T22:44:00.573Z,15.07
2022-10-06T22:46:30.087Z,14.25
2022-10-06T22:48:57.929Z,14.65
2022-10-06T22:51:25.738Z,14.23
2022-10-06T22:53:57.942Z,14.50
2022-10-06T22:56:31.733Z,16.48
2022-10-06T22:58:59.996Z,13.63
2022-10-06T23:01:28.653Z,13.70
2022-10-06T23:03:56.338Z,14.63
2022-10-06T23:06:24.573Z,13.43
2022-10-06T23:08:52.267Z,14.98
2022-10-06T23:11:21.205Z,14.30
2022-10-06T23:13:50.507Z,14.18
2022-10-06T23:16:19.747Z,13.70
2022-10-06T23:19:05.177Z,14.20
2022-10-06T23:21:32.421Z,13.60
2022-10-06T23:24:00.619Z,13.00
2022-10-06T23:26:28.164Z,12.70
2022-10-06T23:28:57.944Z,12.27
2022-10-06T23:31:25.483Z,13.80
2022-10-06T23:33:53.326Z,11.85
2022-10-06T23:36:20.957Z,13.15
2022-10-06T23:38:48.605Z,12.35
2022-10-06T23:41:16.314Z,12.68
2022-10-06T23:43:43.898Z,12.38
2022-10-06T23:46:10.968Z,12.82
2022-10-06T23:48:37.973Z,11.57
2022-10-06T23:51:08.172Z,11.85
2022-10-06T23:53:35.699Z,10.73
2022-10-06T23:56:03.707Z,11.75
2022-10-06T23:58:30.767Z,10.95
